sensor_id;sensor_type;location;lat;lon;timestamp;P1;durP1;ratioP1;P2;durP2;ratioP2
51236;SDS011;37312;47.550;18.818;2022-09-21T00:01:08;4.12;;;3.25;;
51236;SDS011;37312;47.550;18.818;2022-09-21T00:03:36;7.95;;;7.32;;
51236;SDS011;37312;47.550;18.818;2022-09-21T00:06:03;4.50;;;3.87;;
51236;SDS011;37312;47.550;18.818;2022-09-21T00:08:30;9.60;;;8.73;;
51236;SDS011;37312;47.550;18.818;2022-09-21T00:13:23;5.65;;;3.85;;
51236;SDS011;37312;47.550;18.818;2022-09-21T00:15:50;8.18;;;7.47;;
51236;SDS011;37312;47.550;18.818;2022-09-21T00:18:17;12.05;;;4.03;;
51236;SDS011;37312;47.550;18.818;2022-09-21T00:20:43;8.20;;;7.35;;
51236;SDS011;37312;47.550;18.818;2022-09-21T00:23:09;4.43;;;3.35;;
51236;SDS011;37312;47.550;18.818;2022-09-21T00:25:35;3.42;;;3.12;;
51236;SDS011;37312;47.550;18.818;2022-09-21T00:28:01;3.35;;;2.83;;
51236;SDS011;37312;47.550;18.818;2022-09-21T00:30:27;5.32;;;4.75;;
51236;SDS011;37312;47.550;18.818;2022-09-21T00:32:53;8.85;;;8.05;;
51236;SDS011;37312;47.550;18.818;2022-09-21T00:35:19;4.12;;;3.83;;
51236;SDS011;37312;47.550;18.818;2022-09-21T00:37:45;4.00;;;3.03;;
51236;SDS011;37312;47.550;18.818;2022-09-21T00:40:11;6.43;;;4.28;;
51236;SDS011;37312;47.550;18.818;2022-09-21T00:42:37;6.07;;;3.78;;
51236;SDS011;37312;47.550;18.818;2022-09-21T00:45:03;7.47;;;6.87;;
51236;SDS011;37312;47.550;18.818;2022-09-21T00:47:37;4.57;;;2.85;;
51236;SDS011;37312;47.550;18.818;2022-09-21T00:50:07;4.37;;;3.53;;
51236;SDS011;37312;47.550;18.818;2022-09-21T00:52:41;4.72;;;3.60;;
51236;SDS011;37312;47.550;18.818;2022-09-21T00:55:12;8.85;;;8.10;;
51236;SDS011;37312;47.550;18.818;2022-09-21T00:57:41;4.55;;;4.15;;
51236;SDS011;37312;47.550;18.818;2022-09-21T01:00:08;8.85;;;8.07;;
51236;SDS011;37312;47.550;18.818;2022-09-21T01:02:35;4.68;;;3.25;;
51236;SDS011;37312;47.550;18.818;2022-09-21T01:05:03;4.15;;;2.90;;
51236;SDS011;37312;47.550;18.818;2022-09-21T01:07:31;3.12;;;2.87;;
51236;SDS011;37312;47.550;18.818;2022-09-21T01:10:01;3.92;;;2.62;;
51236;SDS011;37312;47.550;18.818;2022-09-21T01:12:38;5.72;;;3.53;;
51236;SDS011;37312;47.550;18.818;2022-09-21T01:18:33;4.60;;;3.60;;
51236;SDS011;37312;47.550;18.818;2022-09-21T01:29:43;3.92;;;2.92;;
51236;SDS011;37312;47.550;18.818;2022-09-21T01:32:15;5.40;;;3.45;;
51236;SDS011;37312;47.550;18.818;2022-09-21T01:34:54;4.05;;;3.05;;
51236;SDS011;37312;47.550;18.818;2022-09-21T01:37:28;3.12;;;2.60;;
51236;SDS011;37312;47.550;18.818;2022-09-21T01:40:02;3.17;;;2.65;;
51236;SDS011;37312;47.550;18.818;2022-09-21T01:42:35;4.37;;;3.45;;
51236;SDS011;37312;47.550;18.818;2022-09-21T01:45:06;4.37;;;3.97;;
51236;SDS011;37312;47.550;18.818;2022-09-21T01:47:35;3.67;;;3.25;;
51236;SDS011;37312;47.550;18.818;2022-09-21T01:50:05;6.35;;;5.75;;
51236;SDS011;37312;47.550;18.818;2022-09-21T01:52:45;4.10;;;3.33;;
51236;SDS011;37312;47.550;18.818;2022-09-21T01:55:20;4.75;;;3.45;;
51236;SDS011;37312;47.550;18.818;2022-09-21T01:57:54;3.62;;;3.33;;
51236;SDS011;37312;47.550;18.818;2022-09-21T02:00:27;7.50;;;6.80;;
51236;SDS011;37312;47.550;18.818;2022-09-21T02:02:56;7.32;;;6.62;;
51236;SDS011;37312;47.550;18.818;2022-09-21T02:05:36;7.82;;;7.00;;
51236;SDS011;37312;47.550;18.818;2022-09-21T02:08:04;4.85;;;3.90;;
51236;SDS011;37312;47.550;18.818;2022-09-21T02:10:35;3.22;;;2.47;;
51236;SDS011;37312;47.550;18.818;2022-09-21T02:13:04;4.10;;;3.08;;
51236;SDS011;37312;47.550;18.818;2022-09-21T02:18:40;9.20;;;8.25;;
51236;SDS011;37312;47.550;18.818;2022-09-21T02:24:34;5.78;;;2.10;;
51236;SDS011;37312;47.550;18.818;2022-09-21T02:27:22;3.40;;;3.08;;
51236;SDS011;37312;47.550;18.818;2022-09-21T02:30:14;4.68;;;4.25;;
51236;SDS011;37312;47.550;18.818;2022-09-21T02:38:42;4.62;;;4.00;;
51236;SDS011;37312;47.550;18.818;2022-09-21T02:41:18;3.58;;;2.87;;
51236;SDS011;37312;47.550;18.818;2022-09-21T02:43:57;3.90;;;2.97;;
51236;SDS011;37312;47.550;18.818;2022-09-21T02:46:33;8.93;;;8.13;;
51236;SDS011;37312;47.550;18.818;2022-09-21T02:49:07;4.37;;;3.97;;
51236;SDS011;37312;47.550;18.818;2022-09-21T02:52:11;4.20;;;3.47;;
51236;SDS011;37312;47.550;18.818;2022-09-21T02:54:33;3.62;;;3.12;;
51236;SDS011;37312;47.550;18.818;2022-09-21T02:57:00;5.70;;;3.62;;
51236;SDS011;37312;47.550;18.818;2022-09-21T02:59:27;7.20;;;5.55;;
51236;SDS011;37312;47.550;18.818;2022-09-21T03:01:53;9.63;;;8.82;;
51236;SDS011;37312;47.550;18.818;2022-09-21T03:04:22;3.65;;;3.22;;
51236;SDS011;37312;47.550;18.818;2022-09-21T03:06:49;4.65;;;3.15;;
51236;SDS011;37312;47.550;18.818;2022-09-21T03:09:15;10.93;;;9.25;;
51236;SDS011;37312;47.550;18.818;2022-09-21T03:11:41;5.93;;;5.32;;
51236;SDS011;37312;47.550;18.818;2022-09-21T03:14:07;4.62;;;3.85;;
51236;SDS011;37312;47.550;18.818;2022-09-21T03:16:34;7.07;;;5.35;;
51236;SDS011;37312;47.550;18.818;2022-09-21T03:19:00;10.60;;;9.57;;
51236;SDS011;37312;47.550;18.818;2022-09-21T03:21:26;3.65;;;3.35;;
51236;SDS011;37312;47.550;18.818;2022-09-21T03:23:53;6.00;;;3.97;;
51236;SDS011;37312;47.550;18.818;2022-09-21T03:26:19;4.65;;;4.15;;
51236;SDS011;37312;47.550;18.818;2022-09-21T03:28:48;5.57;;;5.05;;
51236;SDS011;37312;47.550;18.818;2022-09-21T03:31:14;6.60;;;5.25;;
51236;SDS011;37312;47.550;18.818;2022-09-21T03:33:40;5.85;;;4.82;;
51236;SDS011;37312;47.550;18.818;2022-09-21T03:36:06;6.68;;;5.35;;
51236;SDS011;37312;47.550;18.818;2022-09-21T03:38:32;4.22;;;3.83;;
51236;SDS011;37312;47.550;18.818;2022-09-21T03:40:59;7.05;;;4.82;;
51236;SDS011;37312;47.550;18.818;2022-09-21T03:43:25;6.70;;;6.05;;
51236;SDS011;37312;47.550;18.818;2022-09-21T03:45:51;12.80;;;10.98;;
51236;SDS011;37312;47.550;18.818;2022-09-21T03:48:17;5.20;;;4.22;;
51236;SDS011;37312;47.550;18.818;2022-09-21T03:50:43;4.62;;;3.65;;
51236;SDS011;37312;47.550;18.818;2022-09-21T03:55:36;6.05;;;3.67;;
51236;SDS011;37312;47.550;18.818;2022-09-21T03:58:02;13.65;;;6.28;;
51236;SDS011;37312;47.550;18.818;2022-09-21T04:00:28;6.00;;;5.30;;
51236;SDS011;37312;47.550;18.818;2022-09-21T04:02:54;10.30;;;6.18;;
51236;SDS011;37312;47.550;18.818;2022-09-21T04:05:21;12.55;;;11.38;;
51236;SDS011;37312;47.550;18.818;2022-09-21T04:07:47;7.62;;;5.55;;
51236;SDS011;37312;47.550;18.818;2022-09-21T04:10:14;14.35;;;13.07;;
51236;SDS011;37312;47.550;18.818;2022-09-21T04:12:42;6.90;;;4.97;;
51236;SDS011;37312;47.550;18.818;2022-09-21T04:15:10;12.25;;;11.05;;
51236;SDS011;37312;47.550;18.818;2022-09-21T04:17:36;5.35;;;4.85;;
51236;SDS011;37312;47.550;18.818;2022-09-21T04:20:03;8.30;;;6.40;;
51236;SDS011;37312;47.550;18.818;2022-09-21T04:22:33;6.68;;;4.80;;
51236;SDS011;37312;47.550;18.818;2022-09-21T04:25:01;12.93;;;6.15;;
51236;SDS011;37312;47.550;18.818;2022-09-21T04:27:29;5.72;;;5.18;;
51236;SDS011;37312;47.550;18.818;2022-09-21T04:29:56;5.85;;;5.30;;
51236;SDS011;37312;47.550;18.818;2022-09-21T04:32:22;12.25;;;11.00;;
51236;SDS011;37312;47.550;18.818;2022-09-21T04:34:48;5.68;;;5.00;;
51236;SDS011;37312;47.550;18.818;2022-09-21T04:37:14;6.65;;;4.45;;
51236;SDS011;37312;47.550;18.818;2022-09-21T04:39:40;7.28;;;5.37;;
51236;SDS011;37312;47.550;18.818;2022-09-21T04:42:07;12.13;;;11.02;;
51236;SDS011;37312;47.550;18.818;2022-09-21T04:44:33;7.40;;;5.22;;
51236;SDS011;37312;47.550;18.818;2022-09-21T04:46:59;11.80;;;10.80;;
51236;SDS011;37312;47.550;18.818;2022-09-21T04:49:25;7.80;;;6.25;;
51236;SDS011;37312;47.550;18.818;2022-09-21T04:51:51;7.57;;;6.53;;
51236;SDS011;37312;47.550;18.818;2022-09-21T04:54:17;5.45;;;4.65;;
51236;SDS011;37312;47.550;18.818;2022-09-21T04:56:43;7.57;;;5.70;;
51236;SDS011;37312;47.550;18.818;2022-09-21T04:59:09;7.50;;;5.70;;
51236;SDS011;37312;47.550;18.818;2022-09-21T05:01:35;11.73;;;10.73;;
51236;SDS011;37312;47.550;18.818;2022-09-21T05:04:01;13.93;;;12.57;;
51236;SDS011;37312;47.550;18.818;2022-09-21T05:06:27;9.45;;;4.37;;
51236;SDS011;37312;47.550;18.818;2022-09-21T05:08:54;6.43;;;4.65;;
51236;SDS011;37312;47.550;18.818;2022-09-21T05:11:39;7.12;;;5.03;;
51236;SDS011;37312;47.550;18.818;2022-09-21T05:14:05;4.97;;;4.55;;
51236;SDS011;37312;47.550;18.818;2022-09-21T05:18:57;7.25;;;5.45;;
51236;SDS011;37312;47.550;18.818;2022-09-21T05:21:23;12.77;;;11.60;;
51236;SDS011;37312;47.550;18.818;2022-09-21T05:23:50;7.03;;;6.35;;
51236;SDS011;37312;47.550;18.818;2022-09-21T05:28:42;12.05;;;11.00;;
51236;SDS011;37312;47.550;18.818;2022-09-21T05:33:47;13.43;;;12.15;;
51236;SDS011;37312;47.550;18.818;2022-09-21T05:38:57;5.60;;;4.05;;
51236;SDS011;37312;47.550;18.818;2022-09-21T05:43:49;6.43;;;5.15;;
51236;SDS011;37312;47.550;18.818;2022-09-21T05:48:59;16.10;;;14.70;;
51236;SDS011;37312;47.550;18.818;2022-09-21T05:51:49;10.30;;;6.28;;
51236;SDS011;37312;47.550;18.818;2022-09-21T05:56:52;7.50;;;6.65;;
51236;SDS011;37312;47.550;18.818;2022-09-21T05:59:32;9.15;;;7.20;;
51236;SDS011;37312;47.550;18.818;2022-09-21T06:04:52;15.35;;;13.88;;
51236;SDS011;37312;47.550;18.818;2022-09-21T06:07:21;8.00;;;6.47;;
51236;SDS011;37312;47.550;18.818;2022-09-21T06:12:13;6.90;;;5.65;;
51236;SDS011;37312;47.550;18.818;2022-09-21T06:14:40;9.63;;;7.95;;
51236;SDS011;37312;47.550;18.818;2022-09-21T06:17:06;16.85;;;15.02;;
51236;SDS011;37312;47.550;18.818;2022-09-21T06:19:32;11.00;;;6.62;;
51236;SDS011;37312;47.550;18.818;2022-09-21T06:21:58;8.93;;;7.05;;
51236;SDS011;37312;47.550;18.818;2022-09-21T06:24:24;17.90;;;15.85;;
51236;SDS011;37312;47.550;18.818;2022-09-21T06:26:50;8.13;;;5.45;;
51236;SDS011;37312;47.550;18.818;2022-09-21T06:29:16;7.50;;;6.65;;
51236;SDS011;37312;47.550;18.818;2022-09-21T06:31:48;15.30;;;13.77;;
51236;SDS011;37312;47.550;18.818;2022-09-21T06:34:15;15.05;;;12.68;;
51236;SDS011;37312;47.550;18.818;2022-09-21T06:36:42;18.92;;;15.07;;
51236;SDS011;37312;47.550;18.818;2022-09-21T06:39:08;15.82;;;14.35;;
51236;SDS011;37312;47.550;18.818;2022-09-21T06:41:34;16.75;;;15.32;;
51236;SDS011;37312;47.550;18.818;2022-09-21T06:44:00;12.68;;;11.45;;
51236;SDS011;37312;47.550;18.818;2022-09-21T06:46:26;13.20;;;12.10;;
51236;SDS011;37312;47.550;18.818;2022-09-21T06:48:53;6.85;;;5.95;;
51236;SDS011;37312;47.550;18.818;2022-09-21T06:51:19;11.35;;;10.30;;
51236;SDS011;37312;47.550;18.818;2022-09-21T06:53:46;12.18;;;11.07;;
51236;SDS011;37312;47.550;18.818;2022-09-21T06:56:12;12.68;;;11.55;;
51236;SDS011;37312;47.550;18.818;2022-09-21T07:03:31;10.75;;;9.73;;
51236;SDS011;37312;47.550;18.818;2022-09-21T07:08:23;10.02;;;9.27;;
51236;SDS011;37312;47.550;18.818;2022-09-21T07:10:49;9.73;;;8.82;;
51236;SDS011;37312;47.550;18.818;2022-09-21T07:15:42;10.48;;;9.55;;
51236;SDS011;37312;47.550;18.818;2022-09-21T07:18:09;10.00;;;9.13;;
51236;SDS011;37312;47.550;18.818;2022-09-21T07:20:37;9.27;;;8.38;;
51236;SDS011;37312;47.550;18.818;2022-09-21T07:23:13;8.77;;;8.07;;
51236;SDS011;37312;47.550;18.818;2022-09-21T07:25:41;9.60;;;8.52;;
51236;SDS011;37312;47.550;18.818;2022-09-21T07:28:11;8.57;;;7.87;;
51236;SDS011;37312;47.550;18.818;2022-09-21T07:30:38;8.30;;;7.62;;
51236;SDS011;37312;47.550;18.818;2022-09-21T07:33:05;10.50;;;7.72;;
51236;SDS011;37312;47.550;18.818;2022-09-21T07:35:31;10.10;;;9.27;;
51236;SDS011;37312;47.550;18.818;2022-09-21T07:37:58;8.18;;;7.47;;
51236;SDS011;37312;47.550;18.818;2022-09-21T07:40:25;7.95;;;6.90;;
51236;SDS011;37312;47.550;18.818;2022-09-21T07:42:56;7.50;;;6.87;;
51236;SDS011;37312;47.550;18.818;2022-09-21T07:45:22;7.15;;;6.55;;
51236;SDS011;37312;47.550;18.818;2022-09-21T07:47:49;6.68;;;6.28;;
51236;SDS011;37312;47.550;18.818;2022-09-21T07:50:21;6.37;;;5.93;;
51236;SDS011;37312;47.550;18.818;2022-09-21T07:52:47;6.62;;;6.12;;
51236;SDS011;37312;47.550;18.818;2022-09-21T07:55:13;7.10;;;6.50;;
51236;SDS011;37312;47.550;18.818;2022-09-21T07:57:39;5.53;;;5.03;;
51236;SDS011;37312;47.550;18.818;2022-09-21T08:00:24;6.40;;;5.90;;
51236;SDS011;37312;47.550;18.818;2022-09-21T08:02:52;6.25;;;5.68;;
51236;SDS011;37312;47.550;18.818;2022-09-21T08:05:18;5.75;;;5.35;;
51236;SDS011;37312;47.550;18.818;2022-09-21T08:07:44;5.35;;;4.82;;
51236;SDS011;37312;47.550;18.818;2022-09-21T08:10:10;5.25;;;4.85;;
51236;SDS011;37312;47.550;18.818;2022-09-21T08:12:36;5.37;;;4.97;;
51236;SDS011;37312;47.550;18.818;2022-09-21T08:15:02;5.15;;;4.75;;
51236;SDS011;37312;47.550;18.818;2022-09-21T08:17:28;5.68;;;5.05;;
51236;SDS011;37312;47.550;18.818;2022-09-21T08:19:54;5.00;;;4.60;;
51236;SDS011;37312;47.550;18.818;2022-09-21T08:22:20;5.85;;;5.35;;
51236;SDS011;37312;47.550;18.818;2022-09-21T08:24:49;5.50;;;5.00;;
51236;SDS011;37312;47.550;18.818;2022-09-21T08:27:15;5.15;;;4.62;;
51236;SDS011;37312;47.550;18.818;2022-09-21T08:29:40;5.25;;;4.87;;
51236;SDS011;37312;47.550;18.818;2022-09-21T08:32:07;5.78;;;5.37;;
51236;SDS011;37312;47.550;18.818;2022-09-21T08:34:33;5.32;;;4.93;;
51236;SDS011;37312;47.550;18.818;2022-09-21T08:39:25;6.82;;;6.00;;
51236;SDS011;37312;47.550;18.818;2022-09-21T08:44:39;6.72;;;6.05;;
51236;SDS011;37312;47.550;18.818;2022-09-21T08:47:13;17.50;;;6.65;;
51236;SDS011;37312;47.550;18.818;2022-09-21T08:49:46;6.22;;;4.82;;
51236;SDS011;37312;47.550;18.818;2022-09-21T08:52:18;5.10;;;4.72;;
51236;SDS011;37312;47.550;18.818;2022-09-21T08:54:48;4.87;;;4.47;;
51236;SDS011;37312;47.550;18.818;2022-09-21T08:57:25;6.68;;;4.65;;
51236;SDS011;37312;47.550;18.818;2022-09-21T08:59:54;4.60;;;4.15;;
51236;SDS011;37312;47.550;18.818;2022-09-21T09:10:57;5.10;;;4.65;;
51236;SDS011;37312;47.550;18.818;2022-09-21T09:16:04;4.87;;;4.12;;
51236;SDS011;37312;47.550;18.818;2022-09-21T09:18:44;4.93;;;4.27;;
51236;SDS011;37312;47.550;18.818;2022-09-21T09:21:40;4.72;;;4.18;;
51236;SDS011;37312;47.550;18.818;2022-09-21T09:24:11;3.92;;;3.58;;
51236;SDS011;37312;47.550;18.818;2022-09-21T09:26:46;4.22;;;3.92;;
51236;SDS011;37312;47.550;18.818;2022-09-21T09:31:52;3.80;;;3.47;;
51236;SDS011;37312;47.550;18.818;2022-09-21T09:34:33;5.68;;;5.28;;
51236;SDS011;37312;47.550;18.818;2022-09-21T09:37:11;4.03;;;3.72;;
51236;SDS011;37312;47.550;18.818;2022-09-21T09:39:38;2.90;;;2.70;;
51236;SDS011;37312;47.550;18.818;2022-09-21T09:47:39;3.53;;;3.22;;
51236;SDS011;37312;47.550;18.818;2022-09-21T09:53:03;3.95;;;3.55;;
51236;SDS011;37312;47.550;18.818;2022-09-21T09:55:36;4.07;;;3.67;;
51236;SDS011;37312;47.550;18.818;2022-09-21T09:58:51;5.07;;;4.65;;
51236;SDS011;37312;47.550;18.818;2022-09-21T10:01:43;4.60;;;4.20;;
51236;SDS011;37312;47.550;18.818;2022-09-21T10:04:15;3.50;;;3.12;;
51236;SDS011;37312;47.550;18.818;2022-09-21T10:06:42;4.35;;;3.37;;
51236;SDS011;37312;47.550;18.818;2022-09-21T10:09:21;3.28;;;3.08;;
51236;SDS011;37312;47.550;18.818;2022-09-21T10:12:18;4.00;;;3.60;;
51236;SDS011;37312;47.550;18.818;2022-09-21T10:14:48;3.58;;;3.37;;
51236;SDS011;37312;47.550;18.818;2022-09-21T10:17:17;3.03;;;2.83;;
51236;SDS011;37312;47.550;18.818;2022-09-21T10:19:44;4.62;;;4.20;;
51236;SDS011;37312;47.550;18.818;2022-09-21T10:22:17;3.40;;;3.10;;
51236;SDS011;37312;47.550;18.818;2022-09-21T10:24:48;3.35;;;2.40;;
51236;SDS011;37312;47.550;18.818;2022-09-21T10:27:23;3.50;;;3.20;;
51236;SDS011;37312;47.550;18.818;2022-09-21T10:29:50;8.80;;;3.12;;
51236;SDS011;37312;47.550;18.818;2022-09-21T10:35:11;1.83;;;1.73;;
51236;SDS011;37312;47.550;18.818;2022-09-21T10:37:43;2.45;;;2.35;;
51236;SDS011;37312;47.550;18.818;2022-09-21T10:42:45;5.18;;;2.60;;
51236;SDS011;37312;47.550;18.818;2022-09-21T10:45:17;3.05;;;2.22;;
51236;SDS011;37312;47.550;18.818;2022-09-21T10:47:47;2.03;;;1.83;;
51236;SDS011;37312;47.550;18.818;2022-09-21T10:50:21;3.12;;;1.65;;
51236;SDS011;37312;47.550;18.818;2022-09-21T10:52:50;3.12;;;1.77;;
51236;SDS011;37312;47.550;18.818;2022-09-21T10:55:22;2.58;;;2.37;;
51236;SDS011;37312;47.550;18.818;2022-09-21T10:57:50;2.97;;;2.17;;
51236;SDS011;37312;47.550;18.818;2022-09-21T11:02:45;1.55;;;1.37;;
51236;SDS011;37312;47.550;18.818;2022-09-21T11:05:18;1.60;;;1.27;;
51236;SDS011;37312;47.550;18.818;2022-09-21T11:19:25;2.37;;;1.62;;
51236;SDS011;37312;47.550;18.818;2022-09-21T11:22:18;2.85;;;2.03;;
51236;SDS011;37312;47.550;18.818;2022-09-21T11:24:51;1.90;;;1.73;;
51236;SDS011;37312;47.550;18.818;2022-09-21T11:27:43;1.70;;;1.60;;
51236;SDS011;37312;47.550;18.818;2022-09-21T11:30:15;1.95;;;0.90;;
51236;SDS011;37312;47.550;18.818;2022-09-21T11:35:24;1.95;;;1.35;;
51236;SDS011;37312;47.550;18.818;2022-09-21T11:54:21;1.80;;;1.70;;
51236;SDS011;37312;47.550;18.818;2022-09-21T11:57:05;3.53;;;1.55;;
51236;SDS011;37312;47.550;18.818;2022-09-21T12:04:50;2.47;;;1.60;;
51236;SDS011;37312;47.550;18.818;2022-09-21T12:07:31;1.77;;;1.67;;
51236;SDS011;37312;47.550;18.818;2022-09-21T12:12:48;2.15;;;1.52;;
51236;SDS011;37312;47.550;18.818;2022-09-21T12:15:23;6.80;;;1.37;;
51236;SDS011;37312;47.550;18.818;2022-09-21T12:23:30;1.10;;;1.00;;
51236;SDS011;37312;47.550;18.818;2022-09-21T12:26:15;1.10;;;1.00;;
51236;SDS011;37312;47.550;18.818;2022-09-21T12:29:01;0.77;;;0.77;;
51236;SDS011;37312;47.550;18.818;2022-09-21T12:34:09;0.65;;;0.47;;
51236;SDS011;37312;47.550;18.818;2022-09-21T12:36:43;2.30;;;0.75;;
51236;SDS011;37312;47.550;18.818;2022-09-21T12:39:19;1.12;;;1.02;;
51236;SDS011;37312;47.550;18.818;2022-09-21T12:41:49;1.25;;;1.15;;
51236;SDS011;37312;47.550;18.818;2022-09-21T12:47:02;1.25;;;0.70;;
51236;SDS011;37312;47.550;18.818;2022-09-21T12:49:37;1.05;;;0.95;;
51236;SDS011;37312;47.550;18.818;2022-09-21T12:52:10;1.95;;;1.00;;
51236;SDS011;37312;47.550;18.818;2022-09-21T12:55:06;0.98;;;0.80;;
51236;SDS011;37312;47.550;18.818;2022-09-21T13:02:44;2.35;;;1.35;;
51236;SDS011;37312;47.550;18.818;2022-09-21T13:13:17;1.15;;;1.05;;
51236;SDS011;37312;47.550;18.818;2022-09-21T13:15:47;1.48;;;0.82;;
51236;SDS011;37312;47.550;18.818;2022-09-21T13:18:16;2.80;;;0.62;;
51236;SDS011;37312;47.550;18.818;2022-09-21T13:20:46;1.67;;;1.02;;
51236;SDS011;37312;47.550;18.818;2022-09-21T13:23:21;0.85;;;0.60;;
51236;SDS011;37312;47.550;18.818;2022-09-21T13:26:00;1.15;;;0.85;;
51236;SDS011;37312;47.550;18.818;2022-09-21T13:32:49;4.00;;;1.37;;
51236;SDS011;37312;47.550;18.818;2022-09-21T13:34:35;2.53;;;1.25;;
51236;SDS011;37312;47.550;18.818;2022-09-21T13:39:42;1.40;;;1.30;;
51236;SDS011;37312;47.550;18.818;2022-09-21T13:44:55;1.30;;;1.17;;
51236;SDS011;37312;47.550;18.818;2022-09-21T13:47:34;0.88;;;0.77;;
51236;SDS011;37312;47.550;18.818;2022-09-21T13:52:37;1.05;;;0.95;;
51236;SDS011;37312;47.550;18.818;2022-09-21T13:55:22;1.65;;;1.37;;
51236;SDS011;37312;47.550;18.818;2022-09-21T13:57:54;1.12;;;1.00;;
51236;SDS011;37312;47.550;18.818;2022-09-21T14:10:40;1.50;;;1.00;;
51236;SDS011;37312;47.550;18.818;2022-09-21T14:15:55;2.47;;;1.37;;
51236;SDS011;37312;47.550;18.818;2022-09-21T14:18:52;1.77;;;1.37;;
51236;SDS011;37312;47.550;18.818;2022-09-21T14:24:27;1.20;;;1.10;;
51236;SDS011;37312;47.550;18.818;2022-09-21T14:26:54;2.60;;;1.00;;
51236;SDS011;37312;47.550;18.818;2022-09-21T14:32:16;1.48;;;1.23;;
51236;SDS011;37312;47.550;18.818;2022-09-21T14:34:45;0.93;;;0.93;;
51236;SDS011;37312;47.550;18.818;2022-09-21T14:37:18;2.05;;;1.60;;
51236;SDS011;37312;47.550;18.818;2022-09-21T14:39:53;1.35;;;1.25;;
51236;SDS011;37312;47.550;18.818;2022-09-21T14:42:22;2.00;;;1.60;;
51236;SDS011;37312;47.550;18.818;2022-09-21T14:44:54;2.05;;;1.45;;
51236;SDS011;37312;47.550;18.818;2022-09-21T14:47:31;9.73;;;4.65;;
51236;SDS011;37312;47.550;18.818;2022-09-21T14:58:16;1.62;;;1.20;;
51236;SDS011;37312;47.550;18.818;2022-09-21T15:01:18;3.15;;;2.45;;
51236;SDS011;37312;47.550;18.818;2022-09-21T15:03:54;3.28;;;2.10;;
51236;SDS011;37312;47.550;18.818;2022-09-21T15:12:58;2.22;;;1.35;;
51236;SDS011;37312;47.550;18.818;2022-09-21T15:15:37;2.10;;;1.40;;
51236;SDS011;37312;47.550;18.818;2022-09-21T15:18:17;1.45;;;1.20;;
51236;SDS011;37312;47.550;18.818;2022-09-21T15:20:55;1.45;;;1.35;;
51236;SDS011;37312;47.550;18.818;2022-09-21T15:23:28;1.17;;;1.10;;
51236;SDS011;37312;47.550;18.818;2022-09-21T15:25:59;1.80;;;1.25;;
51236;SDS011;37312;47.550;18.818;2022-09-21T15:28:35;1.40;;;1.30;;
51236;SDS011;37312;47.550;18.818;2022-09-21T15:31:14;1.58;;;1.35;;
51236;SDS011;37312;47.550;18.818;2022-09-21T15:33:42;1.77;;;1.33;;
51236;SDS011;37312;47.550;18.818;2022-09-21T15:36:11;2.20;;;1.20;;
51236;SDS011;37312;47.550;18.818;2022-09-21T15:38:38;2.30;;;1.48;;
51236;SDS011;37312;47.550;18.818;2022-09-21T15:41:04;1.48;;;1.37;;
51236;SDS011;37312;47.550;18.818;2022-09-21T15:43:31;1.83;;;1.73;;
51236;SDS011;37312;47.550;18.818;2022-09-21T15:46:00;1.83;;;1.27;;
51236;SDS011;37312;47.550;18.818;2022-09-21T15:48:28;2.47;;;2.12;;
51236;SDS011;37312;47.550;18.818;2022-09-21T15:53:37;2.03;;;1.80;;
51236;SDS011;37312;47.550;18.818;2022-09-21T15:56:26;2.67;;;2.33;;
51236;SDS011;37312;47.550;18.818;2022-09-21T15:58:59;3.47;;;2.08;;
51236;SDS011;37312;47.550;18.818;2022-09-21T16:01:43;2.65;;;2.22;;
51236;SDS011;37312;47.550;18.818;2022-09-21T16:04:15;5.55;;;2.45;;
51236;SDS011;37312;47.550;18.818;2022-09-21T16:06:44;1.42;;;1.33;;
51236;SDS011;37312;47.550;18.818;2022-09-21T16:11:56;1.27;;;1.17;;
51236;SDS011;37312;47.550;18.818;2022-09-21T16:14:22;2.03;;;1.60;;
51236;SDS011;37312;47.550;18.818;2022-09-21T16:22:18;1.40;;;1.23;;
51236;SDS011;37312;47.550;18.818;2022-09-21T16:24:55;1.87;;;1.77;;
51236;SDS011;37312;47.550;18.818;2022-09-21T16:27:24;1.80;;;1.42;;
51236;SDS011;37312;47.550;18.818;2022-09-21T16:29:53;1.98;;;1.70;;
51236;SDS011;37312;47.550;18.818;2022-09-21T16:32:30;3.62;;;1.35;;
51236;SDS011;37312;47.550;18.818;2022-09-21T16:38:01;2.25;;;1.80;;
51236;SDS011;37312;47.550;18.818;2022-09-21T16:40:27;2.22;;;1.55;;
51236;SDS011;37312;47.550;18.818;2022-09-21T16:42:54;2.55;;;2.05;;
51236;SDS011;37312;47.550;18.818;2022-09-21T16:45:25;2.53;;;2.15;;
51236;SDS011;37312;47.550;18.818;2022-09-21T16:47:56;2.83;;;1.85;;
51236;SDS011;37312;47.550;18.818;2022-09-21T16:50:23;9.27;;;2.12;;
51236;SDS011;37312;47.550;18.818;2022-09-21T16:52:50;3.33;;;2.62;;
51236;SDS011;37312;47.550;18.818;2022-09-21T16:55:19;3.40;;;2.33;;
51236;SDS011;37312;47.550;18.818;2022-09-21T16:57:46;3.72;;;2.30;;
51236;SDS011;37312;47.550;18.818;2022-09-21T17:00:16;1.65;;;1.48;;
51236;SDS011;37312;47.550;18.818;2022-09-21T17:02:47;2.35;;;1.83;;
51236;SDS011;37312;47.550;18.818;2022-09-21T17:05:13;2.70;;;2.50;;
51236;SDS011;37312;47.550;18.818;2022-09-21T17:08:04;4.37;;;2.70;;
51236;SDS011;37312;47.550;18.818;2022-09-21T17:10:33;4.15;;;3.45;;
51236;SDS011;37312;47.550;18.818;2022-09-21T17:13:03;2.55;;;2.35;;
51236;SDS011;37312;47.550;18.818;2022-09-21T17:15:30;3.03;;;2.08;;
51236;SDS011;37312;47.550;18.818;2022-09-21T17:17:58;6.75;;;2.55;;
51236;SDS011;37312;47.550;18.818;2022-09-21T17:20:32;3.10;;;2.83;;
51236;SDS011;37312;47.550;18.818;2022-09-21T17:23:00;3.05;;;2.72;;
51236;SDS011;37312;47.550;18.818;2022-09-21T17:25:28;3.65;;;2.95;;
51236;SDS011;37312;47.550;18.818;2022-09-21T17:28:00;3.53;;;3.22;;
51236;SDS011;37312;47.550;18.818;2022-09-21T17:30:27;5.03;;;3.15;;
51236;SDS011;37312;47.550;18.818;2022-09-21T17:35:30;3.42;;;2.55;;
51236;SDS011;37312;47.550;18.818;2022-09-21T17:38:06;2.72;;;2.50;;
51236;SDS011;37312;47.550;18.818;2022-09-21T17:40:33;3.75;;;2.03;;
51236;SDS011;37312;47.550;18.818;2022-09-21T17:45:39;1.92;;;1.77;;
51236;SDS011;37312;47.550;18.818;2022-09-21T17:48:12;1.90;;;1.77;;
51236;SDS011;37312;47.550;18.818;2022-09-21T17:50:43;2.17;;;1.98;;
51236;SDS011;37312;47.550;18.818;2022-09-21T17:55:55;3.83;;;2.83;;
51236;SDS011;37312;47.550;18.818;2022-09-21T17:58:36;3.12;;;2.65;;
51236;SDS011;37312;47.550;18.818;2022-09-21T18:01:15;2.40;;;2.20;;
51236;SDS011;37312;47.550;18.818;2022-09-21T18:03:49;4.00;;;2.20;;
51236;SDS011;37312;47.550;18.818;2022-09-21T18:08:41;1.70;;;1.60;;
51236;SDS011;37312;47.550;18.818;2022-09-21T18:25:14;2.65;;;1.87;;
51236;SDS011;37312;47.550;18.818;2022-09-21T18:27:45;2.12;;;1.85;;
51236;SDS011;37312;47.550;18.818;2022-09-21T18:30:11;2.75;;;2.17;;
51236;SDS011;37312;47.550;18.818;2022-09-21T18:40:36;3.55;;;2.70;;
51236;SDS011;37312;47.550;18.818;2022-09-21T18:45:52;3.45;;;3.15;;
51236;SDS011;37312;47.550;18.818;2022-09-21T18:51:24;3.83;;;3.20;;
51236;SDS011;37312;47.550;18.818;2022-09-21T18:54:02;3.25;;;2.97;;
51236;SDS011;37312;47.550;18.818;2022-09-21T18:56:32;4.35;;;3.15;;
51236;SDS011;37312;47.550;18.818;2022-09-21T18:59:01;3.30;;;2.55;;
51236;SDS011;37312;47.550;18.818;2022-09-21T19:01:28;10.30;;;3.75;;
51236;SDS011;37312;47.550;18.818;2022-09-21T19:03:57;6.57;;;4.82;;
51236;SDS011;37312;47.550;18.818;2022-09-21T19:06:30;5.53;;;4.22;;
51236;SDS011;37312;47.550;18.818;2022-09-21T19:09:22;3.75;;;3.45;;